createdAt,value
2023-03-01T00:02:59.045Z,1.70
2023-03-01T00:07:00.139Z,1.40
2023-03-01T00:11:04.138Z,1.20
2023-03-01T00:15:05.999Z,1.50
2023-03-01T00:19:09.738Z,1.80
2023-03-01T00:23:10.829Z,1.70
2023-03-01T00:27:12.400Z,1.60
2023-03-01T00:31:15.749Z,1.80
2023-03-01T00:35:16.843Z,1.30
2023-03-01T00:39:17.889Z,1.50
2023-03-01T00:43:19.476Z,1.50
2023-03-01T00:47:20.576Z,1.40
2023-03-01T00:51:25.548Z,1.40
2023-03-01T00:55:26.890Z,1.30
2023-03-01T00:59:27.850Z,1.40
2023-03-01T01:03:28.979Z,1.10
2023-03-01T01:07:30.150Z,1.40
2023-03-01T01:11:31.768Z,1.20
2023-03-01T01:15:36.488Z,1.30
2023-03-01T01:19:37.423Z,1.40
2023-03-01T01:23:40.110Z,1.00
2023-03-01T01:27:41.197Z,1.30
2023-03-01T01:31:43.728Z,0.80
2023-03-01T01:35:46.298Z,1.10
2023-03-01T01:39:47.313Z,1.40
2023-03-01T01:43:51.997Z,1.50
2023-03-01T01:47:56.721Z,1.30
2023-03-01T01:52:01.727Z,1.00
2023-03-01T01:56:03.937Z,1.00
2023-03-01T02:00:14.686Z,1.50
2023-03-01T02:04:15.892Z,1.10
2023-03-01T02:08:19.999Z,1.60
2023-03-01T02:12:24.928Z,1.90
2023-03-01T02:16:26.986Z,1.90
2023-03-01T02:20:37.089Z,1.80
2023-03-01T02:24:59.074Z,1.50
2023-03-01T02:29:00.374Z,0.60
2023-03-01T02:33:04.174Z,1.60
2023-03-01T02:37:09.115Z,1.40
2023-03-01T02:41:13.905Z,1.80
2023-03-01T02:45:14.991Z,1.40
2023-03-01T02:49:19.800Z,1.30
2023-03-01T02:53:30.475Z,1.50
2023-03-01T02:57:33.524Z,1.70
2023-03-01T03:01:37.348Z,1.00
2023-03-01T03:05:38.429Z,0.70
2023-03-01T03:09:39.539Z,1.20
2023-03-01T03:13:42.550Z,1.70
2023-03-01T03:17:45.250Z,1.50
2023-03-01T03:21:46.994Z,1.30
2023-03-01T03:25:49.514Z,1.50
2023-03-01T03:29:50.601Z,1.50
2023-03-01T03:33:51.847Z,1.40
2023-03-01T03:38:06.161Z,0.80
2023-03-01T03:42:07.300Z,1.40
2023-03-01T03:46:08.938Z,1.00
2023-03-01T03:50:11.418Z,1.10
2023-03-01T03:54:12.506Z,1.10
2023-03-01T03:58:13.638Z,0.70
2023-03-01T04:02:16.574Z,-0.20
2023-03-01T04:06:17.596Z,-1.10
2023-03-01T04:10:19.352Z,-0.90
2023-03-01T04:14:20.298Z,0.80
2023-03-01T04:18:23.364Z,1.40
2023-03-01T04:22:26.501Z,1.00
2023-03-01T04:26:27.769Z,0.80
2023-03-01T04:30:28.716Z,1.00
2023-03-01T04:34:30.227Z,1.30
2023-03-01T04:38:31.266Z,1.20
2023-03-01T04:42:32.324Z,0.40
2023-03-01T04:46:33.558Z,0.90
2023-03-01T04:50:35.593Z,0.70
2023-03-01T04:54:36.983Z,0.80
2023-03-01T04:58:38.279Z,0.70
2023-03-01T05:02:39.355Z,0.00
2023-03-01T05:06:41.509Z,-0.40
2023-03-01T05:10:42.698Z,0.30
2023-03-01T05:14:43.814Z,0.90
2023-03-01T05:18:46.500Z,0.90
2023-03-01T05:22:47.616Z,1.10
2023-03-01T05:26:48.944Z,0.90
2023-03-01T05:30:52.036Z,-0.20
2023-03-01T05:34:54.941Z,-1.10
2023-03-01T05:38:56.301Z,-0.90
2023-03-01T05:42:57.701Z,-1.10
2023-03-01T05:46:58.998Z,0.10
2023-03-01T05:51:01.239Z,1.40
2023-03-01T05:55:02.251Z,1.60
2023-03-01T05:59:05.442Z,1.70
2023-03-01T06:03:06.387Z,1.40
2023-03-01T06:07:07.533Z,0.70
2023-03-01T06:11:08.714Z,1.40
2023-03-01T06:15:11.968Z,0.50
2023-03-01T06:19:13.417Z,0.10
2023-03-01T06:23:14.612Z,0.90
2023-03-01T06:27:16.242Z,0.10
2023-03-01T06:31:18.237Z,-0.90
2023-03-01T06:35:20.198Z,0.30
2023-03-01T06:39:21.343Z,1.50
2023-03-01T06:43:23.892Z,0.90
2023-03-01T06:47:24.865Z,1.30
2023-03-01T06:51:26.506Z,1.20
2023-03-01T06:55:27.633Z,0.10
2023-03-01T06:59:28.924Z,-0.50
2023-03-01T07:07:31.360Z,-0.80
2023-03-01T07:11:32.762Z,-0.10
2023-03-01T07:15:33.728Z,-0.40
2023-03-01T07:19:34.978Z,-1.20
2023-03-01T07:23:36.197Z,-1.30
2023-03-01T07:27:37.441Z,-1.10
2023-03-01T07:31:38.623Z,-0.70
2023-03-01T07:35:39.837Z,-1.00
2023-03-01T07:39:41.316Z,-1.60
2023-03-01T07:43:42.564Z,-1.40
2023-03-01T07:47:43.562Z,-1.50
2023-03-01T07:51:44.534Z,-1.20
2023-03-01T07:55:45.629Z,-1.60
2023-03-01T07:59:46.681Z,-1.40
2023-03-01T08:03:48.344Z,-2.10
2023-03-01T08:07:49.648Z,-1.20
2023-03-01T08:11:51.277Z,-0.90
2023-03-01T08:15:52.780Z,-0.80
2023-03-01T08:19:53.778Z,-0.40
2023-03-01T08:23:54.955Z,-1.10
2023-03-01T08:27:55.891Z,-0.80
2023-03-01T08:31:59.491Z,-0.90
2023-03-01T08:36:07.720Z,-0.20
2023-03-01T08:40:10.510Z,-0.80
2023-03-01T08:44:14.521Z,-0.70
2023-03-01T08:48:15.594Z,-0.60
2023-03-01T08:52:16.700Z,-0.60
2023-03-01T08:56:18.963Z,0.00
2023-03-01T09:00:20.665Z,-0.20
2023-03-01T09:04:21.866Z,0.00
2023-03-01T09:08:23.242Z,0.20
2023-03-01T09:12:25.477Z,0.40
2023-03-01T09:16:26.640Z,0.50
2023-03-01T09:20:27.764Z,0.30
2023-03-01T09:24:29.136Z,0.70
2023-03-01T09:28:30.527Z,0.50
2023-03-01T09:32:31.693Z,1.30
2023-03-01T09:36:34.197Z,1.20
2023-03-01T09:40:35.595Z,1.10
2023-03-01T09:44:40.466Z,1.30
2023-03-01T09:49:00.780Z,1.30
2023-03-01T09:53:08.456Z,1.30
2023-03-01T09:57:21.919Z,1.30
2023-03-01T10:01:35.004Z,1.80
2023-03-01T10:05:52.114Z,1.60
2023-03-01T10:09:53.442Z,1.70
2023-03-01T10:14:07.598Z,1.90
2023-03-01T10:18:21.700Z,2.50
2023-03-01T10:22:29.042Z,1.80
2023-03-01T10:26:34.249Z,1.80
2023-03-01T10:30:39.774Z,2.60
2023-03-01T10:34:41.768Z,2.20
2023-03-01T10:38:54.945Z,2.60
2023-03-01T10:42:59.157Z,2.90
2023-03-01T10:47:04.494Z,2.60
2023-03-01T10:51:08.002Z,2.90
2023-03-01T10:55:27.576Z,2.50
2023-03-01T10:59:38.338Z,2.50
2023-03-01T11:03:39.999Z,3.20
2023-03-01T11:07:50.978Z,2.90
2023-03-01T11:11:56.822Z,3.40
2023-03-01T11:16:03.712Z,3.60
2023-03-01T11:20:14.775Z,3.30
2023-03-01T11:24:17.429Z,3.30
2023-03-01T11:28:20.038Z,3.30
2023-03-01T11:32:25.097Z,3.50
2023-03-01T11:36:46.679Z,4.10
2023-03-01T11:41:04.311Z,3.50
2023-03-01T11:45:12.428Z,3.80
2023-03-01T11:49:23.333Z,3.90
2023-03-01T11:53:45.059Z,4.00
2023-03-01T11:58:06.704Z,4.40
2023-03-01T12:02:30.176Z,4.00
2023-03-01T12:06:41.267Z,4.10
2023-03-01T12:10:50.588Z,4.20
2023-03-01T12:14:55.492Z,4.50
2023-03-01T12:19:03.266Z,4.50
2023-03-01T12:23:28.053Z,4.50
2023-03-01T12:27:41.951Z,5.20
2023-03-01T12:32:19.927Z,4.70
2023-03-01T12:36:25.183Z,4.60
2023-03-01T12:40:41.960Z,4.80
2023-03-01T12:45:20.413Z,5.00
2023-03-01T12:49:31.686Z,4.70
2023-03-01T12:53:39.648Z,5.10
2023-03-01T12:57:47.434Z,5.10
2023-03-01T13:02:01.608Z,5.50
2023-03-01T13:06:15.197Z,5.40
2023-03-01T13:10:20.727Z,5.20
2023-03-01T13:14:25.845Z,5.00
2023-03-01T13:18:30.048Z,5.20
2023-03-01T13:22:34.390Z,5.30
2023-03-01T13:26:39.594Z,5.30
2023-03-01T13:30:43.458Z,5.30
2023-03-01T13:34:48.308Z,5.80
2023-03-01T13:38:59.062Z,5.80
2023-03-01T13:43:05.907Z,6.30
2023-03-01T13:47:15.187Z,5.90
2023-03-01T13:51:17.243Z,5.40
2023-03-01T13:55:22.920Z,5.90
2023-03-01T13:59:26.496Z,5.80
2023-03-01T14:03:28.938Z,5.90
2023-03-01T14:07:30.642Z,6.30
2023-03-01T14:12:06.235Z,5.80
2023-03-01T14:16:14.353Z,5.50
2023-03-01T14:20:25.418Z,6.00
2023-03-01T14:24:27.779Z,5.70
2023-03-01T14:28:33.770Z,5.70
2023-03-01T14:32:35.842Z,5.50
2023-03-01T14:36:37.514Z,5.80
2023-03-01T14:40:39.030Z,5.60
2023-03-01T14:44:43.746Z,5.90
2023-03-01T14:48:44.862Z,5.90
2023-03-01T14:52:48.893Z,5.80
2023-03-01T14:56:52.011Z,6.00
2023-03-01T15:00:59.743Z,5.50
2023-03-01T15:05:07.323Z,5.50
2023-03-01T15:09:15.629Z,5.60
2023-03-01T15:13:25.844Z,5.70
2023-03-01T15:17:39.379Z,5.50
2023-03-01T15:21:43.036Z,5.60
2023-03-01T15:25:45.516Z,5.40
2023-03-01T15:30:02.371Z,5.70
2023-03-01T15:34:12.801Z,5.60
2023-03-01T15:38:33.028Z,5.50
2023-03-01T15:42:36.935Z,4.90
2023-03-01T15:46:38.371Z,5.10
2023-03-01T15:50:41.134Z,5.40
2023-03-01T15:54:42.640Z,5.10
2023-03-01T15:58:43.871Z,5.40
2023-03-01T16:02:45.923Z,4.90
2023-03-01T16:06:49.982Z,5.10
2023-03-01T16:10:53.200Z,4.90
2023-03-01T16:14:54.670Z,5.00
2023-03-01T16:18:57.415Z,4.80
2023-03-01T16:23:04.604Z,4.70
2023-03-01T16:27:05.980Z,5.00
2023-03-01T16:31:07.678Z,4.80
2023-03-01T16:35:12.046Z,4.40
2023-03-01T16:39:13.229Z,4.50
2023-03-01T16:43:14.636Z,4.60
2023-03-01T16:47:15.950Z,4.60
2023-03-01T16:51:17.277Z,4.40
2023-03-01T16:55:18.722Z,4.50
2023-03-01T16:59:20.042Z,4.20
2023-03-01T17:03:22.990Z,4.10
2023-03-01T17:07:24.104Z,3.90
2023-03-01T17:11:25.792Z,4.00
2023-03-01T17:15:26.910Z,3.80
2023-03-01T17:19:28.347Z,3.70
2023-03-01T17:23:30.608Z,4.00
2023-03-01T17:27:33.996Z,3.90
2023-03-01T17:31:35.201Z,3.60
2023-03-01T17:35:37.466Z,3.60
2023-03-01T17:39:39.043Z,3.60
2023-03-01T17:43:40.337Z,3.30
2023-03-01T17:47:41.474Z,3.20
2023-03-01T17:51:43.869Z,3.20
2023-03-01T17:55:45.669Z,2.90
2023-03-01T17:59:47.057Z,3.00
2023-03-01T18:03:50.792Z,2.90
2023-03-01T18:07:52.440Z,2.90
2023-03-01T18:11:54.250Z,2.80
2023-03-01T18:15:57.452Z,2.80
2023-03-01T18:19:59.066Z,2.90
2023-03-01T18:24:01.262Z,2.80
2023-03-01T18:28:03.074Z,3.00
2023-03-01T18:32:05.315Z,2.40
2023-03-01T18:36:12.558Z,2.70
2023-03-01T18:40:13.942Z,2.40
2023-03-01T18:44:16.256Z,2.20
2023-03-01T18:48:17.486Z,2.60
2023-03-01T18:52:18.941Z,2.30
2023-03-01T18:56:20.571Z,2.30
2023-03-01T19:00:22.755Z,2.40
2023-03-01T19:04:24.413Z,2.10
2023-03-01T19:08:26.043Z,1.80
2023-03-01T19:12:28.048Z,1.80
2023-03-01T19:16:32.158Z,1.70
2023-03-01T19:20:33.746Z,1.80
2023-03-01T19:24:35.477Z,1.70
2023-03-01T19:28:39.603Z,1.90
2023-03-01T19:32:40.966Z,1.60
2023-03-01T19:36:43.734Z,1.70
2023-03-01T19:40:44.964Z,1.70
2023-03-01T19:44:46.252Z,1.40
2023-03-01T19:48:49.890Z,1.80
2023-03-01T19:52:51.140Z,1.70
2023-03-01T19:56:52.865Z,1.90
2023-03-01T20:00:58.416Z,1.90
2023-03-01T20:04:59.773Z,2.10
2023-03-01T20:09:15.277Z,2.40
2023-03-01T20:13:06.831Z,2.20
2023-03-01T20:17:08.089Z,2.40
2023-03-01T20:21:21.485Z,2.00
2023-03-01T20:25:12.801Z,2.10
2023-03-01T20:29:13.903Z,2.30
2023-03-01T20:33:15.134Z,1.90
2023-03-01T20:37:16.695Z,1.60
2023-03-01T20:41:19.088Z,1.50
2023-03-01T20:45:22.090Z,1.40
2023-03-01T20:49:23.608Z,1.50
2023-03-01T20:53:24.789Z,2.10
2023-03-01T20:57:26.071Z,2.60
2023-03-01T21:01:27.150Z,3.70
2023-03-01T21:05:28.237Z,4.70
2023-03-01T21:09:29.469Z,4.00
2023-03-01T21:13:32.126Z,4.40
2023-03-01T21:17:33.672Z,4.40
2023-03-01T21:21:34.939Z,4.10
2023-03-01T21:25:35.998Z,4.00
2023-03-01T21:29:39.340Z,3.90
2023-03-01T21:33:46.589Z,2.40
2023-03-01T21:37:48.281Z,1.70
2023-03-01T21:41:50.036Z,2.00
2023-03-01T21:45:51.411Z,1.70
2023-03-01T21:49:52.486Z,2.50
2023-03-01T21:53:55.895Z,2.80
2023-03-01T21:57:57.064Z,3.60
2023-03-01T22:02:00.018Z,3.60
2023-03-01T22:06:02.002Z,4.10
2023-03-01T22:10:03.299Z,3.90
2023-03-01T22:14:05.154Z,4.30
2023-03-01T22:18:07.133Z,4.00
2023-03-01T22:22:08.289Z,4.50
2023-03-01T22:26:21.993Z,4.40
2023-03-01T22:30:23.321Z,3.00
2023-03-01T22:34:24.518Z,3.20
2023-03-01T22:38:25.823Z,4.00
2023-03-01T22:42:28.768Z,4.10
2023-03-01T22:46:30.377Z,3.80
2023-03-01T22:50:31.666Z,4.10
2023-03-01T22:54:32.923Z,4.10
2023-03-01T22:58:33.988Z,3.30
2023-03-01T23:02:35.159Z,3.60
2023-03-01T23:06:38.412Z,2.90
2023-03-01T23:10:40.570Z,2.40
2023-03-01T23:14:42.711Z,3.10
2023-03-01T23:18:44.800Z,2.50
2023-03-01T23:22:45.938Z,3.00
2023-03-01T23:26:49.772Z,3.10
2023-03-01T23:30:57.465Z,2.60
2023-03-01T23:34:58.613Z,1.90
2023-03-01T23:39:03.617Z,1.30
2023-03-01T23:43:05.239Z,1.90
2023-03-01T23:47:06.418Z,3.10
2023-03-01T23:51:08.007Z,4.00
2023-03-01T23:55:10.848Z,2.40
2023-03-01T23:59:15.695Z,2.80
